Time;durP1;ratioP1;P1;durP2;ratioP2;P2;SDS_P1;SDS_P2;PMS_P1;PMS_P2;Temp;Humidity;BMP_temperature;BMP_pressure;BME280_temperature;BME280_humidity;BME280_pressure;Samples;Min_cycle;Max_cycle;Signal;HPM_P1;HPM_P2
2021/09/02 00:01:40;;;;;;;;;17.33;13.00;;;;;;;;5019818;28;45491;-84
2021/09/02 00:04:05;;;;;;;;;16.67;15.00;;;;;;;;5018360;28;45560;-87
2021/09/02 00:06:31;;;;;;;;;17.00;13.75;;;;;;;;5018425;28;48847;-84
2021/09/02 00:08:56;;;;;;;;;20.50;13.50;;;;;;;;5018330;28;45299;-85
2021/09/02 00:11:21;;;;;;;;;16.33;14.00;;;;;;;;5019116;28;45331;-87
2021/09/02 00:13:46;;;;;;;;;15.67;14.67;;;;;;;;5022168;28;45516;-86
2021/09/02 00:16:11;;;;;;;;;15.67;13.67;;;;;;;;5022277;28;46055;-86
2021/09/02 00:18:38;;;;;;;;;17.00;15.33;;;;;;;;5022469;28;45542;-85
2021/09/02 00:21:03;;;;;;;;;18.25;13.75;;;;;;;;5017376;28;45428;-86
2021/09/02 00:23:28;;;;;;;;;15.67;13.00;;;;;;;;5019060;28;45599;-87
2021/09/02 00:25:53;;;;;;;;;13.00;12.33;;;;;;;;5018260;28;45679;-87
2021/09/02 00:28:20;;;;;;;;;16.33;12.33;;;;;;;;5018573;28;45526;-86
2021/09/02 00:30:45;;;;;;;;;15.50;12.50;;;;;;;;5022888;28;45315;-86
2021/09/02 00:33:14;;;;;;;;;19.00;14.50;;;;;;;;5024472;28;45493;-87
2021/09/02 00:35:40;;;;;;;;;16.50;13.50;;;;;;;;5018557;28;46562;-85
2021/09/02 00:38:05;;;;;;;;;21.33;14.67;;;;;;;;5029497;28;45399;-86
2021/09/02 00:40:30;;;;;;;;;17.00;13.00;;;;;;;;5015376;28;45253;-87
2021/09/02 00:42:55;;;;;;;;;15.00;13.67;;;;;;;;5020470;28;45282;-86
2021/09/02 00:45:20;;;;;;;;;20.33;15.00;;;;;;;;5017057;28;47264;-87
2021/09/02 00:47:46;;;;;;;;;22.33;15.67;;;;;;;;5018091;28;45548;-87
2021/09/02 00:50:11;;;;;;;;;18.33;14.33;;;;;;;;5017613;28;45567;-87
2021/09/02 00:52:36;;;;;;;;;20.25;13.25;;;;;;;;5015335;28;45525;-87
2021/09/02 00:55:06;;;;;;;;;16.00;13.00;;;;;;;;5016751;28;48420;-86
2021/09/02 00:57:33;;;;;;;;;24.00;15.50;;;;;;;;5018276;28;45367;-84
2021/09/02 00:59:59;;;;;;;;;16.50;13.50;;;;;;;;5017060;28;45746;-87
2021/09/02 01:02:25;;;;;;;;;15.25;13.50;;;;;;;;5020898;28;45497;-85
2021/09/02 01:04:51;;;;;;;;;18.75;14.50;;;;;;;;5031238;28;46135;-86
2021/09/02 01:07:17;;;;;;;;;17.75;13.25;;;;;;;;5035187;28;46621;-86
2021/09/02 01:09:42;;;;;;;;;17.75;13.25;;;;;;;;5033573;28;45469;-87
2021/09/02 01:12:26;;;;;;;;;19.00;13.00;;;;;;;;5030821;28;45458;-87
2021/09/02 01:14:52;;;;;;;;;19.50;13.75;;;;;;;;5030423;28;47176;-87
2021/09/02 01:17:17;;;;;;;;;19.75;14.50;;;;;;;;5031627;28;45866;-86
2021/09/02 01:19:43;;;;;;;;;16.00;13.33;;;;;;;;5032798;28;45334;-86
2021/09/02 01:22:08;;;;;;;;;14.25;11.50;;;;;;;;5033238;28;45530;-86
2021/09/02 01:24:34;;;;;;;;;17.33;13.33;;;;;;;;5029858;28;48533;-85
2021/09/02 01:26:59;;;;;;;;;20.00;13.33;;;;;;;;5030343;28;45569;-85
2021/09/02 01:29:24;;;;;;;;;19.00;13.00;;;;;;;;5029891;28;45485;-85
2021/09/02 01:31:49;;;;;;;;;14.00;13.00;;;;;;;;5030857;28;45467;-86
2021/09/02 01:34:18;;;;;;;;;19.33;15.33;;;;;;;;5033570;28;46143;-83
2021/09/02 01:36:43;;;;;;;;;16.00;13.50;;;;;;;;5032807;28;45314;-86
2021/09/02 01:39:08;;;;;;;;;15.33;14.33;;;;;;;;5030559;28;45444;-86
2021/09/02 01:41:33;;;;;;;;;21.67;16.00;;;;;;;;5031537;28;45295;-85
2021/09/02 01:43:58;;;;;;;;;15.75;14.25;;;;;;;;5030622;28;46386;-86
2021/09/02 01:46:24;;;;;;;;;13.33;12.67;;;;;;;;5030870;28;45443;-85
2021/09/02 01:48:49;;;;;;;;;19.67;17.00;;;;;;;;5026858;28;45564;-86
2021/09/02 01:51:14;;;;;;;;;18.67;14.67;;;;;;;;5032021;28;45430;-87
2021/09/02 01:53:41;;;;;;;;;15.50;13.00;;;;;;;;5031108;28;45406;-86
2021/09/02 01:56:06;;;;;;;;;16.25;13.50;;;;;;;;5029571;28;46023;-87
2021/09/02 01:58:31;;;;;;;;;15.00;13.33;;;;;;;;5030847;28;45428;-86
2021/09/02 02:00:57;;;;;;;;;17.50;12.00;;;;;;;;5032991;28;45371;-86
2021/09/02 02:03:22;;;;;;;;;20.25;17.00;;;;;;;;5030583;28;46532;-87
2021/09/02 02:05:47;;;;;;;;;19.33;12.67;;;;;;;;5030941;28;45968;-86
2021/09/02 02:08:13;;;;;;;;;15.50;14.00;;;;;;;;5030536;28;45337;-86
2021/09/02 02:10:39;;;;;;;;;18.25;13.75;;;;;;;;5031448;28;45678;-85
2021/09/02 02:13:04;;;;;;;;;21.33;17.33;;;;;;;;5033040;28;46058;-86
2021/09/02 02:15:29;;;;;;;;;21.67;17.33;;;;;;;;5030445;28;45563;-86
2021/09/02 02:17:55;;;;;;;;;19.50;13.75;;;;;;;;5027777;28;45502;-87
2021/09/02 02:20:20;;;;;;;;;26.00;17.50;;;;;;;;5030001;28;45472;-85
2021/09/02 02:22:46;;;;;;;;;18.50;15.00;;;;;;;;5029739;28;47184;-87
2021/09/02 02:25:12;;;;;;;;;21.25;13.00;;;;;;;;5034031;28;45425;-87
2021/09/02 02:27:38;;;;;;;;;17.50;13.00;;;;;;;;5032704;28;45304;-84
2021/09/02 02:30:04;;;;;;;;;19.75;12.75;;;;;;;;5030381;28;45524;-85
2021/09/02 02:32:29;;;;;;;;;21.25;15.50;;;;;;;;5030022;28;46215;-86
2021/09/02 02:34:54;;;;;;;;;22.67;14.33;;;;;;;;5028939;28;45818;-86
2021/09/02 02:37:20;;;;;;;;;19.33;14.00;;;;;;;;5032974;28;45468;-84
2021/09/02 02:39:45;;;;;;;;;23.25;15.75;;;;;;;;5029192;28;45634;-85
2021/09/02 02:42:10;;;;;;;;;15.67;13.67;;;;;;;;5029308;28;45402;-86
2021/09/02 02:44:37;;;;;;;;;20.50;16.75;;;;;;;;5029997;28;45448;-85
2021/09/02 02:47:03;;;;;;;;;16.25;15.75;;;;;;;;5030132;28;45326;-85
2021/09/02 02:49:28;;;;;;;;;20.00;15.25;;;;;;;;5032561;28;45688;-86
2021/09/02 02:51:53;;;;;;;;;21.33;14.67;;;;;;;;5033697;28;45370;-85
2021/09/02 02:54:18;;;;;;;;;19.75;16.00;;;;;;;;5030877;28;45655;-87
2021/09/02 02:56:44;;;;;;;;;17.67;16.00;;;;;;;;5029152;28;45434;-86
2021/09/02 02:59:09;;;;;;;;;18.50;15.50;;;;;;;;5029310;28;45450;-86
2021/09/02 03:01:34;;;;;;;;;21.33;16.67;;;;;;;;5032162;28;45396;-87
2021/09/02 03:04:00;;;;;;;;;24.00;15.67;;;;;;;;5034155;28;45522;-86
2021/09/02 03:06:25;;;;;;;;;19.33;16.33;;;;;;;;5032249;28;45472;-85
2021/09/02 03:08:50;;;;;;;;;21.33;18.33;;;;;;;;5032501;28;45414;-85
2021/09/02 03:11:15;;;;;;;;;25.67;20.00;;;;;;;;5032843;28;45467;-87
2021/09/02 03:13:41;;;;;;;;;20.33;12.67;;;;;;;;5032905;28;45719;-86
2021/09/02 03:16:06;;;;;;;;;19.00;17.33;;;;;;;;5036181;28;45560;-87
2021/09/02 03:18:31;;;;;;;;;20.25;17.25;;;;;;;;5035360;28;45406;-86
2021/09/02 03:20:56;;;;;;;;;18.00;16.33;;;;;;;;5034705;28;45369;-86
2021/09/02 03:23:21;;;;;;;;;13.67;13.33;;;;;;;;5032540;28;46171;-86
2021/09/02 03:25:47;;;;;;;;;18.67;16.00;;;;;;;;5033317;28;46459;-86
2021/09/02 03:28:12;;;;;;;;;21.00;12.33;;;;;;;;5036902;28;45451;-87
2021/09/02 03:30:37;;;;;;;;;25.50;16.75;;;;;;;;5032535;28;46125;-86
2021/09/02 03:33:02;;;;;;;;;24.00;19.33;;;;;;;;5034258;28;45463;-86
2021/09/02 03:35:28;;;;;;;;;19.00;18.33;;;;;;;;5033573;28;45713;-86
2021/09/02 03:37:53;;;;;;;;;20.33;16.33;;;;;;;;5032103;28;45461;-86
2021/09/02 03:40:18;;;;;;;;;18.67;16.00;;;;;;;;5035782;28;46106;-85
2021/09/02 03:42:43;;;;;;;;;21.00;18.33;;;;;;;;5034776;28;45549;-86
2021/09/02 03:45:09;;;;;;;;;19.67;17.67;;;;;;;;5031670;28;45527;-84
2021/09/02 03:47:34;;;;;;;;;21.25;18.25;;;;;;;;5031895;28;45408;-85
2021/09/02 03:50:00;;;;;;;;;20.25;15.75;;;;;;;;5033031;28;46583;-85
2021/09/02 03:52:25;;;;;;;;;24.33;18.00;;;;;;;;5033562;28;45496;-87
2021/09/02 03:54:50;;;;;;;;;23.25;17.00;;;;;;;;5027946;28;45444;-86
2021/09/02 03:57:15;;;;;;;;;16.00;13.75;;;;;;;;5030160;28;45496;-85
2021/09/02 03:59:41;;;;;;;;;20.33;16.67;;;;;;;;5032518;28;45277;-86
2021/09/02 04:02:06;;;;;;;;;25.67;19.00;;;;;;;;5030495;28;45458;-85
2021/09/02 04:04:32;;;;;;;;;26.00;18.67;;;;;;;;5027009;28;45534;-86
2021/09/02 04:06:57;;;;;;;;;20.25;16.50;;;;;;;;5032871;28;45445;-85
2021/09/02 04:09:22;;;;;;;;;34.33;20.33;;;;;;;;5031578;28;46057;-86
2021/09/02 04:11:47;;;;;;;;;24.00;19.33;;;;;;;;5031717;28;45573;-86
2021/09/02 04:14:13;;;;;;;;;21.33;18.33;;;;;;;;5032274;28;45603;-86
2021/09/02 04:16:38;;;;;;;;;25.00;16.67;;;;;;;;5031947;28;45609;-85
2021/09/02 04:19:03;;;;;;;;;26.67;17.67;;;;;;;;5034799;28;46059;-86
2021/09/02 04:21:28;;;;;;;;;23.75;20.00;;;;;;;;5032351;28;45383;-83
2021/09/02 04:23:53;;;;;;;;;24.00;21.00;;;;;;;;5031885;28;45468;-86
2021/09/02 04:26:19;;;;;;;;;19.67;18.00;;;;;;;;5032403;28;46342;-85
2021/09/02 04:28:45;;;;;;;;;22.75;19.25;;;;;;;;5030804;28;47133;-85
2021/09/02 04:31:10;;;;;;;;;20.33;15.33;;;;;;;;5035725;28;45854;-85
2021/09/02 04:33:35;;;;;;;;;30.67;22.00;;;;;;;;5031009;28;46092;-86
2021/09/02 04:36:00;;;;;;;;;24.33;19.67;;;;;;;;5031496;28;45542;-86
2021/09/02 04:38:25;;;;;;;;;22.00;18.00;;;;;;;;5031646;28;46429;-85
2021/09/02 04:40:51;;;;;;;;;26.00;21.00;;;;;;;;5031197;28;45534;-86
2021/09/02 04:43:17;;;;;;;;;22.00;19.50;;;;;;;;5035343;28;45534;-85
2021/09/02 04:45:42;;;;;;;;;29.50;19.25;;;;;;;;5031268;28;45595;-86
2021/09/02 04:48:15;;;;;;;;;20.33;18.33;;;;;;;;5032442;28;45622;-87
2021/09/02 04:50:41;;;;;;;;;24.50;17.25;;;;;;;;5032404;28;45902;-86
2021/09/02 04:53:06;;;;;;;;;27.25;21.75;;;;;;;;5031577;28;45244;-85
2021/09/02 04:55:31;;;;;;;;;27.33;22.67;;;;;;;;5033051;28;45368;-86
2021/09/02 04:57:57;;;;;;;;;26.00;20.67;;;;;;;;5033048;28;45576;-86
2021/09/02 05:00:22;;;;;;;;;26.00;21.00;;;;;;;;5031223;28;48620;-86
2021/09/02 05:02:47;;;;;;;;;31.00;21.67;;;;;;;;5031788;28;45481;-85
2021/09/02 05:05:12;;;;;;;;;23.67;19.67;;;;;;;;5031561;28;45458;-87
2021/09/02 05:07:37;;;;;;;;;27.00;22.00;;;;;;;;5032242;28;45450;-86
2021/09/02 05:10:04;;;;;;;;;37.33;21.33;;;;;;;;5033734;28;45484;-87
2021/09/02 05:12:29;;;;;;;;;28.75;19.50;;;;;;;;5030298;28;45334;-86
2021/09/02 05:14:54;;;;;;;;;33.67;24.00;;;;;;;;5031158;28;45373;-85
2021/09/02 05:17:19;;;;;;;;;26.00;19.00;;;;;;;;5030545;28;47282;-86
2021/09/02 05:19:44;;;;;;;;;28.33;23.67;;;;;;;;5030643;28;45734;-85
2021/09/02 05:22:10;;;;;;;;;27.33;26.33;;;;;;;;5033145;28;45369;-86
2021/09/02 05:24:35;;;;;;;;;26.00;20.67;;;;;;;;5030809;28;45704;-86
2021/09/02 05:27:00;;;;;;;;;25.67;20.33;;;;;;;;5030833;28;45952;-86
2021/09/02 05:29:25;;;;;;;;;30.00;23.33;;;;;;;;5032266;28;45441;-86
2021/09/02 05:31:51;;;;;;;;;29.33;24.33;;;;;;;;5031317;28;45318;-85
2021/09/02 05:34:16;;;;;;;;;30.50;24.00;;;;;;;;5035031;28;45225;-86
2021/09/02 05:36:41;;;;;;;;;21.00;20.67;;;;;;;;5029272;28;48358;-86
2021/09/02 05:39:06;;;;;;;;;29.67;24.33;;;;;;;;5030456;28;45350;-86
2021/09/02 05:41:32;;;;;;;;;29.00;19.50;;;;;;;;5031001;28;45370;-85
2021/09/02 05:43:57;;;;;;;;;29.33;24.67;;;;;;;;5031264;28;45398;-87
2021/09/02 05:46:22;;;;;;;;;30.00;24.25;;;;;;;;5032885;28;48274;-85
2021/09/02 05:48:48;;;;;;;;;28.67;23.00;;;;;;;;5031583;28;45456;-85
2021/09/02 05:51:13;;;;;;;;;29.00;24.33;;;;;;;;5030631;28;45588;-86
2021/09/02 05:53:38;;;;;;;;;33.33;24.33;;;;;;;;5028277;28;45991;-86
2021/09/02 05:56:04;;;;;;;;;37.33;29.33;;;;;;;;5019075;28;46571;-86
2021/09/02 05:58:29;;;;;;;;;32.00;23.50;;;;;;;;5016715;28;46613;-85
2021/09/02 06:00:54;;;;;;;;;31.67;23.67;;;;;;;;5015795;28;45399;-85
2021/09/02 06:03:20;;;;;;;;;27.00;24.00;;;;;;;;5016485;28;45275;-84
2021/09/02 06:05:45;;;;;;;;;28.50;23.25;;;;;;;;5019730;28;45358;-85
2021/09/02 06:08:10;;;;;;;;;34.33;24.33;;;;;;;;5031497;28;45758;-86
2021/09/02 06:10:35;;;;;;;;;34.67;26.33;;;;;;;;5032130;28;45623;-86
2021/09/02 06:13:01;;;;;;;;;30.00;24.67;;;;;;;;5032679;28;45612;-84
2021/09/02 06:15:26;;;;;;;;;40.00;31.75;;;;;;;;5029988;28;45466;-87
2021/09/02 06:17:52;;;;;;;;;30.25;27.50;;;;;;;;5030428;28;45306;-84
2021/09/02 06:20:17;;;;;;;;;36.67;29.33;;;;;;;;5030526;28;45525;-85
2021/09/02 06:22:42;;;;;;;;;26.67;22.67;;;;;;;;5029637;28;45544;-86
2021/09/02 06:25:08;;;;;;;;;32.25;27.25;;;;;;;;5033545;28;45478;-86
2021/09/02 06:27:33;;;;;;;;;30.75;26.75;;;;;;;;5025309;28;45508;-83
2021/09/02 06:29:59;;;;;;;;;38.25;25.25;;;;;;;;5025997;28;45348;-85
2021/09/02 06:32:24;;;;;;;;;29.00;25.67;;;;;;;;5030713;28;45433;-86
2021/09/02 06:34:49;;;;;;;;;37.33;32.33;;;;;;;;5029641;28;45438;-87
2021/09/02 06:37:14;;;;;;;;;30.33;24.67;;;;;;;;5032979;28;45499;-85
2021/09/02 06:39:39;;;;;;;;;34.33;29.33;;;;;;;;5030093;28;45461;-85
2021/09/02 06:42:05;;;;;;;;;38.00;29.33;;;;;;;;5030143;28;45364;-87
2021/09/02 06:44:30;;;;;;;;;36.75;24.50;;;;;;;;5026110;28;46519;-86
2021/09/02 06:46:55;;;;;;;;;38.33;29.33;;;;;;;;5031681;28;45362;-85
2021/09/02 06:49:21;;;;;;;;;33.50;28.25;;;;;;;;5031725;28;45469;-85
2021/09/02 06:51:47;;;;;;;;;36.00;27.25;;;;;;;;5030745;28;45432;-86
2021/09/02 06:54:13;;;;;;;;;32.75;27.00;;;;;;;;5029587;28;46601;-85
2021/09/02 06:56:38;;;;;;;;;33.50;24.50;;;;;;;;5028984;28;46263;-84
2021/09/02 06:59:03;;;;;;;;;38.67;27.00;;;;;;;;5029930;28;45322;-84
2021/09/02 07:01:28;;;;;;;;;38.00;26.33;;;;;;;;5032277;28;45540;-84
2021/09/02 07:03:53;;;;;;;;;31.33;23.67;;;;;;;;5030519;28;46443;-86
2021/09/02 07:06:19;;;;;;;;;35.33;29.00;;;;;;;;5028599;28;45980;-85
2021/09/02 07:08:44;;;;;;;;;36.67;29.33;;;;;;;;5029131;28;45450;-85
2021/09/02 07:11:09;;;;;;;;;38.33;28.33;;;;;;;;5028918;28;45427;-84
2021/09/02 07:13:34;;;;;;;;;35.33;25.33;;;;;;;;5030243;28;48239;-83
2021/09/02 07:16:00;;;;;;;;;30.33;25.67;;;;;;;;5030245;28;45387;-84
2021/09/02 07:18:25;;;;;;;;;34.75;26.25;;;;;;;;5029860;28;45519;-87
2021/09/02 07:20:51;;;;;;;;;42.67;25.33;;;;;;;;5028341;28;45547;-87
2021/09/02 07:23:16;;;;;;;;;33.67;28.00;;;;;;;;5030598;28;45518;-86
2021/09/02 07:25:41;;;;;;;;;31.00;25.33;;;;;;;;5030678;28;45707;-88
2021/09/02 07:28:06;;;;;;;;;34.00;24.33;;;;;;;;5029834;28;45562;-86
2021/09/02 07:30:32;;;;;;;;;39.00;28.00;;;;;;;;5028302;28;45432;-86
2021/09/02 07:32:57;;;;;;;;;30.00;25.67;;;;;;;;5029426;28;46083;-87
2021/09/02 07:35:23;;;;;;;;;29.50;22.50;;;;;;;;5021184;28;46417;-86
2021/09/02 07:37:48;;;;;;;;;32.50;23.25;;;;;;;;5029531;28;45331;-89
2021/09/02 07:40:14;;;;;;;;;31.75;25.75;;;;;;;;5029266;28;45319;-85
2021/09/02 07:42:39;;;;;;;;;30.33;23.00;;;;;;;;5011205;28;47527;-84
2021/09/02 07:45:04;;;;;;;;;25.33;19.67;;;;;;;;5022130;28;45410;-84
2021/09/02 07:47:32;;;;;;;;;29.25;22.25;;;;;;;;5027258;28;45681;-85
2021/09/02 07:49:57;;;;;;;;;25.75;21.25;;;;;;;;5032330;28;45461;-85
2021/09/02 07:52:22;;;;;;;;;26.33;19.67;;;;;;;;5035461;28;46479;-84
2021/09/02 07:54:48;;;;;;;;;31.00;22.33;;;;;;;;5034287;28;45685;-82
2021/09/02 07:57:13;;;;;;;;;35.25;25.00;;;;;;;;5030948;28;45561;-84
2021/09/02 07:59:38;;;;;;;;;24.33;21.00;;;;;;;;5032197;28;45496;-85
2021/09/02 08:02:03;;;;;;;;;26.33;21.00;;;;;;;;5031168;28;48081;-85
2021/09/02 08:04:29;;;;;;;;;32.75;26.75;;;;;;;;5034180;28;45272;-84
2021/09/02 08:06:54;;;;;;;;;24.25;21.25;;;;;;;;5027835;28;45331;-85
2021/09/02 08:09:19;;;;;;;;;28.67;23.67;;;;;;;;5031513;28;45566;-85
2021/09/02 08:11:44;;;;;;;;;25.33;17.67;;;;;;;;5030661;28;48124;-83
2021/09/02 08:14:09;;;;;;;;;31.67;24.67;;;;;;;;5031165;28;46572;-83
2021/09/02 08:16:35;;;;;;;;;29.00;23.67;;;;;;;;5029834;28;45550;-82
2021/09/02 08:19:01;;;;;;;;;24.75;20.00;;;;;;;;5034345;28;45370;-84
2021/09/02 08:21:26;;;;;;;;;26.75;20.25;;;;;;;;5030234;28;47390;-82
2021/09/02 08:23:54;;;;;;;;;22.25;20.75;;;;;;;;5031546;28;45334;-82
2021/09/02 08:26:19;;;;;;;;;24.25;20.75;;;;;;;;5030994;28;45525;-83
2021/09/02 08:28:44;;;;;;;;;28.00;23.67;;;;;;;;5032229;28;45391;-83
2021/09/02 08:31:10;;;;;;;;;28.67;21.67;;;;;;;;5034464;28;45555;-84
2021/09/02 08:33:35;;;;;;;;;26.33;18.67;;;;;;;;5031905;28;45688;-83
2021/09/02 08:36:00;;;;;;;;;31.00;20.67;;;;;;;;5031546;28;45402;-81
2021/09/02 08:38:25;;;;;;;;;24.33;23.33;;;;;;;;5031619;28;45462;-83
2021/09/02 08:40:51;;;;;;;;;23.50;22.75;;;;;;;;5031753;28;46603;-83
2021/09/02 08:43:16;;;;;;;;;27.33;19.33;;;;;;;;5034727;28;45292;-83
2021/09/02 08:45:42;;;;;;;;;28.75;20.50;;;;;;;;5031193;28;45434;-83
2021/09/02 08:48:08;;;;;;;;;18.50;16.00;;;;;;;;5031645;28;45569;-83
2021/09/02 08:50:35;;;;;;;;;24.50;19.50;;;;;;;;5031184;28;46183;-83
2021/09/02 08:53:01;;;;;;;;;22.50;19.00;;;;;;;;5032007;28;45460;-83
2021/09/02 08:55:26;;;;;;;;;36.75;23.50;;;;;;;;5027731;28;45884;-82
2021/09/02 08:57:53;;;;;;;;;24.75;18.75;;;;;;;;5024896;28;45363;-83
2021/09/02 09:00:20;;;;;;;;;23.75;20.25;;;;;;;;5023622;28;45526;-83
2021/09/02 09:02:47;;;;;;;;;24.75;22.25;;;;;;;;5027794;28;45288;-83
2021/09/02 09:05:16;;;;;;;;;26.00;19.75;;;;;;;;5030753;28;45626;-85
2021/09/02 09:07:44;;;;;;;;;29.75;23.25;;;;;;;;5025980;28;45577;-83
2021/09/02 09:10:11;;;;;;;;;20.25;18.50;;;;;;;;5019722;28;46077;-85
2021/09/02 09:12:38;;;;;;;;;24.25;20.75;;;;;;;;5026314;28;46080;-84
2021/09/02 09:15:05;;;;;;;;;23.25;19.75;;;;;;;;5029576;28;45515;-82
2021/09/02 09:17:31;;;;;;;;;25.75;17.75;;;;;;;;5032235;28;45654;-84
2021/09/02 09:19:57;;;;;;;;;18.25;13.00;;;;;;;;5041113;28;47251;-85
2021/09/02 09:22:23;;;;;;;;;24.50;19.75;;;;;;;;5033207;28;45836;-85
2021/09/02 09:24:49;;;;;;;;;20.25;17.25;;;;;;;;5028519;28;45470;-84
2021/09/02 09:27:16;;;;;;;;;23.25;20.50;;;;;;;;5028161;28;45386;-86
2021/09/02 09:29:41;;;;;;;;;27.75;23.50;;;;;;;;5026427;28;47463;-84
2021/09/02 09:32:11;;;;;;;;;25.00;20.25;;;;;;;;5027345;28;45425;-84
2021/09/02 09:34:36;;;;;;;;;21.75;21.00;;;;;;;;5025318;28;52102;-85
2021/09/02 09:37:07;;;;;;;;;29.33;20.33;;;;;;;;5027509;28;45465;-83
2021/09/02 09:39:36;;;;;;;;;23.00;22.00;;;;;;;;5024718;28;45422;-83
2021/09/02 09:42:02;;;;;;;;;23.00;18.00;;;;;;;;5023480;28;45792;-84
2021/09/02 09:44:28;;;;;;;;;29.00;21.50;;;;;;;;5028835;28;45457;-85
2021/09/02 09:47:12;;;;;;;;;23.50;21.00;;;;;;;;5025463;28;45618;-85
2021/09/02 09:49:42;;;;;;;;;26.00;19.75;;;;;;;;5017195;28;45322;-85
2021/09/02 09:52:19;;;;;;;;;20.75;15.50;;;;;;;;5026970;28;45921;-84
2021/09/02 09:54:44;;;;;;;;;23.00;18.00;;;;;;;;5027475;28;45602;-85
2021/09/02 09:57:10;;;;;;;;;24.67;18.67;;;;;;;;5022428;28;45448;-85
2021/09/02 09:59:36;;;;;;;;;20.25;18.50;;;;;;;;5027871;28;45536;-84
2021/09/02 10:02:02;;;;;;;;;22.25;19.50;;;;;;;;5025549;28;45360;-84
2021/09/02 10:04:28;;;;;;;;;26.50;21.00;;;;;;;;5024823;28;45456;-83
2021/09/02 10:06:54;;;;;;;;;24.00;18.00;;;;;;;;5025708;28;45375;-84
2021/09/02 10:09:19;;;;;;;;;20.75;18.25;;;;;;;;5026220;28;49073;-84
2021/09/02 10:11:44;;;;;;;;;19.33;18.33;;;;;;;;5026629;28;45711;-84
2021/09/02 10:14:10;;;;;;;;;23.00;17.50;;;;;;;;5027290;28;45573;-85
2021/09/02 10:16:35;;;;;;;;;21.25;18.75;;;;;;;;5025226;28;45299;-82
2021/09/02 10:19:01;;;;;;;;;20.33;18.67;;;;;;;;5030139;28;48622;-84
2021/09/02 10:21:27;;;;;;;;;20.50;18.00;;;;;;;;5025074;28;45401;-84
2021/09/02 10:23:52;;;;;;;;;23.75;15.00;;;;;;;;5024871;28;45371;-85
2021/09/02 10:26:31;;;;;;;;;18.67;15.33;;;;;;;;5027471;28;45500;-84
2021/09/02 10:28:56;;;;;;;;;17.00;16.25;;;;;;;;5025351;28;48344;-84
2021/09/02 10:31:25;;;;;;;;;22.75;19.00;;;;;;;;5028670;28;45398;-84
2021/09/02 10:33:50;;;;;;;;;18.50;15.25;;;;;;;;5025153;28;45464;-85
2021/09/02 10:36:15;;;;;;;;;19.75;15.00;;;;;;;;5023952;28;45290;-85
2021/09/02 10:38:42;;;;;;;;;21.33;19.00;;;;;;;;5025899;28;46087;-86
2021/09/02 10:41:08;;;;;;;;;18.25;15.00;;;;;;;;5025134;28;45497;-84
2021/09/02 10:43:53;;;;;;;;;14.75;13.75;;;;;;;;5029109;28;45399;-84
2021/09/02 10:46:28;;;;;;;;;16.50;15.25;;;;;;;;5029124;28;45369;-82
2021/09/02 10:48:53;;;;;;;;;22.00;14.50;;;;;;;;5028328;28;46495;-84
2021/09/02 10:51:35;;;;;;;;;18.00;15.50;;;;;;;;5022957;28;45525;-86
2021/09/02 10:54:01;;;;;;;;;20.00;16.00;;;;;;;;5022360;28;45482;-81
2021/09/02 10:56:46;;;;;;;;;20.50;17.50;;;;;;;;5017406;28;45423;-83
2021/09/02 10:59:31;;;;;;;;;20.75;17.00;;;;;;;;5021568;28;48654;-84
2021/09/02 11:01:56;;;;;;;;;16.00;15.50;;;;;;;;5024500;28;45439;-85
2021/09/02 11:04:24;;;;;;;;;21.33;16.67;;;;;;;;5027113;28;45346;-83
2021/09/02 11:06:49;;;;;;;;;17.00;13.25;;;;;;;;5025031;28;45522;-84
2021/09/02 11:09:28;;;;;;;;;21.00;18.00;;;;;;;;5024397;28;46104;-83
2021/09/02 11:11:53;;;;;;;;;20.00;18.50;;;;;;;;5022546;28;45383;-84
2021/09/02 11:14:19;;;;;;;;;18.00;15.00;;;;;;;;5028029;28;45386;-83
2021/09/02 11:16:44;;;;;;;;;15.67;14.67;;;;;;;;5023347;28;45613;-83
2021/09/02 11:19:09;;;;;;;;;21.00;15.67;;;;;;;;5026566;28;46238;-83
2021/09/02 11:21:35;;;;;;;;;20.00;16.00;;;;;;;;5021695;28;45456;-82
2021/09/02 11:24:03;;;;;;;;;19.00;15.00;;;;;;;;5023263;28;45523;-81
2021/09/02 11:26:38;;;;;;;;;19.25;16.25;;;;;;;;5029444;28;45512;-83
2021/09/02 11:29:07;;;;;;;;;14.50;14.50;;;;;;;;5018721;28;45472;-82
2021/09/02 11:31:33;;;;;;;;;15.75;14.25;;;;;;;;5028983;28;45407;-82
2021/09/02 11:33:58;;;;;;;;;14.75;13.50;;;;;;;;5029563;28;45502;-83
2021/09/02 11:36:24;;;;;;;;;15.75;12.50;;;;;;;;5026298;28;45439;-82
2021/09/02 11:38:58;;;;;;;;;15.50;14.25;;;;;;;;5027328;28;46187;-84
2021/09/02 11:41:25;;;;;;;;;15.25;12.50;;;;;;;;5030965;28;45575;-82
2021/09/02 11:43:51;;;;;;;;;11.75;10.25;;;;;;;;5026330;28;45474;-83
2021/09/02 11:46:17;;;;;;;;;12.25;10.50;;;;;;;;5020810;28;45350;-84
2021/09/02 11:48:50;;;;;;;;;12.00;10.75;;;;;;;;5026138;28;46296;-84
2021/09/02 11:51:19;;;;;;;;;13.25;10.50;;;;;;;;5028129;28;45644;-84
2021/09/02 11:53:44;;;;;;;;;13.50;11.75;;;;;;;;5027320;28;45498;-81
2021/09/02 11:56:13;;;;;;;;;12.00;11.00;;;;;;;;5029186;28;45434;-84
2021/09/02 11:58:39;;;;;;;;;11.25;11.00;;;;;;;;5027047;28;46148;-84
2021/09/02 12:01:04;;;;;;;;;14.75;13.00;;;;;;;;5029407;28;45565;-84
2021/09/02 12:03:30;;;;;;;;;12.00;12.00;;;;;;;;5026054;28;45547;-85
2021/09/02 12:05:56;;;;;;;;;14.50;13.25;;;;;;;;5026003;28;45333;-84
2021/09/02 12:08:22;;;;;;;;;12.50;11.75;;;;;;;;5029859;28;46162;-84
2021/09/02 12:10:47;;;;;;;;;13.25;11.25;;;;;;;;5027034;28;58518;-79
2021/09/02 12:13:18;;;;;;;;;11.00;10.67;;;;;;;;5030470;28;45475;-83
2021/09/02 12:15:43;;;;;;;;;9.75;8.75;;;;;;;;5026103;28;45549;-84
2021/09/02 12:18:10;;;;;;;;;13.00;11.67;;;;;;;;5021505;28;47264;-85
2021/09/02 12:20:36;;;;;;;;;14.25;11.25;;;;;;;;5028524;28;45340;-85
2021/09/02 12:23:20;;;;;;;;;10.00;9.75;;;;;;;;5027929;28;45428;-84
2021/09/02 12:25:59;;;;;;;;;8.00;8.00;;;;;;;;5026572;28;45612;-85
2021/09/02 12:28:35;;;;;;;;;10.50;9.75;;;;;;;;5030714;28;47603;-84
2021/09/02 12:31:19;;;;;;;;;11.00;9.75;;;;;;;;5029661;28;45363;-86
2021/09/02 12:33:58;;;;;;;;;9.00;9.00;;;;;;;;5027047;28;45352;-85
2021/09/02 12:36:24;;;;;;;;;8.75;8.75;;;;;;;;5021031;28;45540;-84
2021/09/02 12:38:50;;;;;;;;;8.75;8.00;;;;;;;;5019676;28;45974;-85
2021/09/02 12:41:16;;;;;;;;;11.00;8.50;;;;;;;;5028031;28;45507;-84
2021/09/02 12:44:00;;;;;;;;;7.75;7.75;;;;;;;;5031592;28;45681;-85
2021/09/02 12:46:26;;;;;;;;;8.50;8.25;;;;;;;;5028364;28;45540;-85
2021/09/02 12:49:03;;;;;;;;;9.50;9.50;;;;;;;;5020659;28;48288;-85
2021/09/02 12:51:28;;;;;;;;;10.50;10.00;;;;;;;;5027134;28;45656;-86
2021/09/02 12:53:57;;;;;;;;;8.67;8.00;;;;;;;;5026104;28;45688;-86
2021/09/02 12:56:22;;;;;;;;;8.25;8.00;;;;;;;;5029971;28;45436;-84
2021/09/02 12:58:47;;;;;;;;;9.67;7.67;;;;;;;;5025591;28;46395;-84
2021/09/02 13:01:12;;;;;;;;;9.00;8.00;;;;;;;;5030503;28;45538;-87
2021/09/02 13:03:37;;;;;;;;;8.67;8.67;;;;;;;;5024376;28;45358;-86
2021/09/02 13:06:03;;;;;;;;;9.33;8.00;;;;;;;;5026938;28;45262;-87
2021/09/02 13:08:28;;;;;;;;;10.67;8.33;;;;;;;;5026678;28;45791;-84
2021/09/02 13:10:53;;;;;;;;;8.33;8.33;;;;;;;;5028817;28;45595;-86
2021/09/02 13:13:19;;;;;;;;;10.00;10.00;;;;;;;;5030713;28;45507;-81
2021/09/02 13:15:44;;;;;;;;;9.00;8.67;;;;;;;;5027821;28;45446;-86
2021/09/02 13:18:09;;;;;;;;;9.67;9.67;;;;;;;;5025792;28;46111;-83
2021/09/02 13:20:34;;;;;;;;;9.00;8.25;;;;;;;;5022501;28;45460;-85
2021/09/02 13:23:01;;;;;;;;;9.33;9.33;;;;;;;;5016741;28;50082;-86
2021/09/02 13:25:27;;;;;;;;;12.50;11.50;;;;;;;;5031438;28;45398;-86
2021/09/02 13:27:53;;;;;;;;;9.00;8.00;;;;;;;;5031594;28;45404;-86
2021/09/02 13:30:20;;;;;;;;;8.00;7.00;;;;;;;;5027113;28;47890;-87
2021/09/02 13:32:46;;;;;;;;;8.00;7.75;;;;;;;;5031119;28;45469;-85
2021/09/02 13:35:11;;;;;;;;;6.75;6.75;;;;;;;;5029882;28;46849;-86
2021/09/02 13:37:37;;;;;;;;;7.75;7.75;;;;;;;;5027835;28;45377;-86
2021/09/02 13:40:04;;;;;;;;;10.25;8.00;;;;;;;;5031462;28;45584;-86
2021/09/02 13:42:29;;;;;;;;;7.50;6.75;;;;;;;;5029268;28;45463;-81
2021/09/02 13:44:54;;;;;;;;;8.00;7.33;;;;;;;;5028267;28;45262;-84
2021/09/02 13:47:20;;;;;;;;;9.33;8.33;;;;;;;;5029631;28;45489;-85
2021/09/02 13:49:45;;;;;;;;;8.00;8.00;;;;;;;;5018381;28;46819;-86
2021/09/02 13:52:10;;;;;;;;;8.67;8.00;;;;;;;;5026178;28;45537;-84
2021/09/02 13:54:35;;;;;;;;;9.33;8.67;;;;;;;;5031819;28;45907;-85
2021/09/02 13:57:01;;;;;;;;;10.00;9.50;;;;;;;;5028193;28;48507;-85
2021/09/02 13:59:26;;;;;;;;;8.00;8.00;;;;;;;;5031453;28;45430;-86
2021/09/02 14:01:51;;;;;;;;;9.00;9.00;;;;;;;;5030491;28;45474;-86
2021/09/02 14:04:16;;;;;;;;;12.00;11.00;;;;;;;;5034318;28;45414;-85
2021/09/02 14:06:42;;;;;;;;;9.00;9.00;;;;;;;;5029972;28;45367;-85
2021/09/02 14:09:07;;;;;;;;;8.75;8.50;;;;;;;;5031106;28;45451;-84
2021/09/02 14:11:33;;;;;;;;;9.33;9.33;;;;;;;;5033688;28;45368;-86
2021/09/02 14:13:58;;;;;;;;;7.50;7.50;;;;;;;;5032266;28;45720;-86
2021/09/02 14:16:23;;;;;;;;;9.25;8.25;;;;;;;;5032333;28;47141;-85